createdAt,value
2019-05-19T00:00:02.320Z,21.84
2019-05-19T00:02:31.448Z,22.24
2019-05-19T00:05:00.728Z,22.38
2019-05-19T00:07:29.832Z,22.58
2019-05-19T00:09:58.862Z,22.84
2019-05-19T00:12:27.972Z,22.97
2019-05-19T00:14:57.000Z,23.04
2019-05-19T00:17:26.125Z,23.18
2019-05-19T00:19:55.141Z,22.55
2019-05-19T00:22:24.162Z,21.57
2019-05-19T00:24:53.196Z,20.57
2019-05-19T00:27:23.277Z,19.72
2019-05-19T00:29:52.300Z,19.81
2019-05-19T00:32:21.348Z,20.64
2019-05-19T00:34:50.380Z,21.01
2019-05-19T00:37:19.405Z,21.49
2019-05-19T00:39:48.812Z,21.53
2019-05-19T00:42:17.831Z,21.66
2019-05-19T00:44:46.946Z,21.74
2019-05-19T00:47:15.966Z,21.93
2019-05-19T00:49:45.000Z,21.95
2019-05-19T00:52:14.108Z,22.05
2019-05-19T00:54:43.146Z,22.16
2019-05-19T00:57:12.165Z,22.21
2019-05-19T00:59:41.588Z,22.29
2019-05-19T01:02:10.592Z,22.36
2019-05-19T01:04:39.698Z,22.47
2019-05-19T01:07:09.082Z,22.52
2019-05-19T01:09:38.089Z,22.53
2019-05-19T01:12:07.124Z,22.55
2019-05-19T01:14:36.215Z,22.58
2019-05-19T01:17:05.284Z,22.70
2019-05-19T01:19:34.278Z,22.76
2019-05-19T01:22:03.313Z,22.83
2019-05-19T01:24:32.345Z,22.83
2019-05-19T01:27:01.380Z,22.93
2019-05-19T01:29:30.409Z,23.04
2019-05-19T01:31:59.490Z,23.05
2019-05-19T01:34:28.583Z,23.04
2019-05-19T01:36:57.900Z,22.94
2019-05-19T01:39:26.949Z,22.86
2019-05-19T01:41:56.055Z,22.84
2019-05-19T01:44:25.079Z,22.90
2019-05-19T01:46:54.130Z,22.94
2019-05-19T01:49:23.430Z,23.03
2019-05-19T01:51:52.472Z,22.95
2019-05-19T01:54:21.500Z,22.93
2019-05-19T01:56:50.606Z,22.97
2019-05-19T01:59:19.636Z,23.05
2019-05-19T02:01:48.707Z,22.98
2019-05-19T02:04:17.786Z,23.05
2019-05-19T02:06:46.882Z,23.15
2019-05-19T02:09:16.935Z,23.17
2019-05-19T02:11:45.962Z,23.18
2019-05-19T02:14:14.979Z,23.15
2019-05-19T02:16:44.020Z,23.17
2019-05-19T02:19:13.062Z,23.09
2019-05-19T02:21:42.083Z,23.13
2019-05-19T02:24:11.329Z,23.18
2019-05-19T02:26:40.369Z,23.14
2019-05-19T02:29:09.408Z,23.21
2019-05-19T02:31:38.444Z,23.25
2019-05-19T02:34:07.476Z,23.28
2019-05-19T02:36:36.531Z,23.42
2019-05-19T02:39:07.074Z,23.63
2019-05-19T02:41:36.323Z,23.85
2019-05-19T02:44:05.432Z,23.49
2019-05-19T02:46:34.653Z,22.73
2019-05-19T02:49:03.829Z,21.88
2019-05-19T02:51:34.438Z,21.12
2019-05-19T02:54:04.554Z,20.52
2019-05-19T02:56:33.601Z,20.88
2019-05-19T02:59:02.696Z,21.80
2019-05-19T03:01:31.740Z,22.42
2019-05-19T03:04:00.851Z,22.79
2019-05-19T03:06:29.872Z,23.13
2019-05-19T03:08:58.926Z,23.45
2019-05-19T03:11:28.109Z,23.59
2019-05-19T03:13:57.218Z,23.66
2019-05-19T03:16:26.283Z,23.58
2019-05-19T03:18:55.401Z,23.37
2019-05-19T03:21:24.426Z,23.13
2019-05-19T03:23:53.458Z,23.01
2019-05-19T03:26:22.486Z,22.83
2019-05-19T03:28:51.547Z,22.86
2019-05-19T03:31:27.888Z,22.97
2019-05-19T03:34:01.577Z,23.15
2019-05-19T03:36:30.661Z,23.22
2019-05-19T03:38:59.759Z,23.34
2019-05-19T03:41:28.794Z,23.35
2019-05-19T03:43:57.824Z,23.38
2019-05-19T03:46:26.855Z,23.52
2019-05-19T03:48:55.882Z,23.55
2019-05-19T03:51:30.795Z,22.87
2019-05-19T03:53:55.728Z,21.47
2019-05-19T03:56:24.758Z,20.33
2019-05-19T03:58:53.841Z,20.23
2019-05-19T04:01:22.926Z,20.92
2019-05-19T04:03:51.963Z,21.30
2019-05-19T04:06:21.000Z,21.67
2019-05-19T04:08:50.397Z,21.93
2019-05-19T04:11:19.437Z,22.01
2019-05-19T04:13:48.551Z,22.18
2019-05-19T04:16:17.609Z,22.25
2019-05-19T04:18:46.630Z,22.43
2019-05-19T04:21:15.661Z,22.55
2019-05-19T04:23:44.709Z,22.55
2019-05-19T04:26:13.721Z,22.51
2019-05-19T04:28:42.832Z,22.40
2019-05-19T04:31:11.841Z,22.47
2019-05-19T04:33:40.897Z,22.67
2019-05-19T04:36:10.221Z,22.69
2019-05-19T04:38:39.290Z,22.94
2019-05-19T04:41:08.349Z,23.03
2019-05-19T04:43:37.502Z,23.24
2019-05-19T04:46:06.549Z,23.35
2019-05-19T04:48:35.956Z,23.41
2019-05-19T04:51:04.997Z,23.51
2019-05-19T04:53:34.657Z,23.70
2019-05-19T04:56:03.697Z,23.86
2019-05-19T04:58:32.721Z,24.06
2019-05-19T05:01:01.757Z,24.20
2019-05-19T05:03:30.795Z,23.63
2019-05-19T05:05:59.845Z,22.59
2019-05-19T05:08:30.841Z,21.78
2019-05-19T05:10:59.625Z,21.16
2019-05-19T05:13:28.662Z,21.45
2019-05-19T05:15:57.702Z,22.35
2019-05-19T05:18:26.996Z,22.93
2019-05-19T05:20:56.087Z,23.32
2019-05-19T05:23:25.101Z,23.56
2019-05-19T05:25:54.194Z,23.86
2019-05-19T05:28:23.246Z,24.06
2019-05-19T05:30:52.594Z,24.27
2019-05-19T05:33:21.627Z,24.25
2019-05-19T05:35:50.671Z,23.35
2019-05-19T05:38:19.706Z,22.21
2019-05-19T05:40:48.731Z,21.15
2019-05-19T05:43:17.772Z,21.12
2019-05-19T05:45:47.034Z,21.85
2019-05-19T05:48:16.041Z,22.42
2019-05-19T05:50:45.097Z,22.72
2019-05-19T05:53:14.129Z,22.87
2019-05-19T05:55:43.162Z,22.97
2019-05-19T05:58:12.208Z,23.03
2019-05-19T06:00:41.281Z,23.21
2019-05-19T06:03:10.356Z,23.46
2019-05-19T06:05:39.386Z,23.51
2019-05-19T06:08:08.409Z,23.65
2019-05-19T06:10:37.434Z,23.65
2019-05-19T06:13:06.467Z,23.78
2019-05-19T06:15:35.526Z,23.90
2019-05-19T06:18:04.528Z,24.10
2019-05-19T06:20:33.584Z,24.17
2019-05-19T06:23:02.671Z,23.41
2019-05-19T06:25:31.730Z,22.49
2019-05-19T06:28:00.760Z,21.57
2019-05-19T06:30:29.838Z,21.20
2019-05-19T06:33:00.343Z,21.88
2019-05-19T06:35:29.370Z,22.63
2019-05-19T06:37:58.415Z,23.07
2019-05-19T06:40:27.518Z,23.55
2019-05-19T06:42:56.562Z,23.66
2019-05-19T06:45:25.693Z,23.79
2019-05-19T06:47:54.689Z,23.99
2019-05-19T06:50:23.728Z,24.06
2019-05-19T06:52:52.758Z,24.10
2019-05-19T06:55:21.832Z,24.16
2019-05-19T06:57:50.907Z,23.59
2019-05-19T07:00:19.924Z,22.73
2019-05-19T07:02:48.965Z,21.91
2019-05-19T07:05:19.128Z,22.00
2019-05-19T07:07:48.204Z,22.76
2019-05-19T07:10:17.263Z,23.22
2019-05-19T07:12:46.379Z,23.76
2019-05-19T07:15:15.738Z,24.04
2019-05-19T07:17:44.841Z,24.37
2019-05-19T07:20:13.862Z,24.72
2019-05-19T07:22:43.037Z,24.09
2019-05-19T07:25:13.680Z,23.15
2019-05-19T07:27:42.778Z,22.26
2019-05-19T07:30:13.437Z,21.56
2019-05-19T07:32:42.467Z,21.85
2019-05-19T07:35:11.732Z,22.69
2019-05-19T07:37:40.791Z,23.41
2019-05-19T07:40:10.202Z,23.99
2019-05-19T07:42:39.221Z,24.37
2019-05-19T07:45:08.270Z,24.88
2019-05-19T07:47:37.300Z,24.59
2019-05-19T07:50:06.770Z,23.82
2019-05-19T07:52:35.874Z,23.10
2019-05-19T07:55:08.862Z,22.51
2019-05-19T07:57:37.892Z,22.21
2019-05-19T08:00:09.882Z,22.83
2019-05-19T08:02:38.977Z,24.03
2019-05-19T08:05:08.289Z,24.71
2019-05-19T08:07:37.464Z,25.26
2019-05-19T08:10:07.286Z,25.13
2019-05-19T08:12:36.370Z,24.46
2019-05-19T08:15:07.750Z,23.92
2019-05-19T08:17:36.839Z,23.44
2019-05-19T08:20:08.745Z,23.11
2019-05-19T08:22:37.821Z,22.82
2019-05-19T08:25:08.348Z,22.58
2019-05-19T08:27:37.441Z,22.34
2019-05-19T08:30:09.974Z,22.07
2019-05-19T08:32:39.008Z,21.87
2019-05-19T08:35:08.311Z,22.52
2019-05-19T08:37:37.434Z,23.69
2019-05-19T08:40:06.689Z,24.55
2019-05-19T08:42:35.737Z,24.51
2019-05-19T08:45:07.806Z,23.76
2019-05-19T08:47:37.093Z,23.17
2019-05-19T08:50:07.597Z,22.63
2019-05-19T08:52:36.661Z,22.25
2019-05-19T08:55:06.519Z,21.91
2019-05-19T08:57:35.621Z,22.46
2019-05-19T09:00:06.717Z,23.55
2019-05-19T09:02:35.746Z,24.41
2019-05-19T09:05:06.477Z,25.02
2019-05-19T09:07:35.658Z,24.99
2019-05-19T09:10:08.347Z,24.14
2019-05-19T09:12:37.921Z,23.38
2019-05-19T09:15:07.275Z,22.74
2019-05-19T09:17:36.318Z,22.24
2019-05-19T09:20:06.792Z,21.82
2019-05-19T09:22:35.818Z,22.40
2019-05-19T09:25:07.930Z,23.42
2019-05-19T09:27:36.984Z,24.13
2019-05-19T09:30:10.661Z,24.54
2019-05-19T09:32:39.710Z,24.83
2019-05-19T09:35:08.763Z,24.06
2019-05-19T09:37:37.791Z,23.25
2019-05-19T09:40:09.545Z,22.55
2019-05-19T09:42:38.560Z,22.07
2019-05-19T09:45:10.370Z,22.53
2019-05-19T09:47:39.712Z,23.62
2019-05-19T09:50:08.830Z,24.19
2019-05-19T09:52:38.415Z,24.65
2019-05-19T09:55:07.431Z,24.72
2019-05-19T09:57:36.715Z,24.04
2019-05-19T10:00:10.456Z,23.48
2019-05-19T10:02:39.484Z,23.00
2019-05-19T10:05:08.678Z,22.69
2019-05-19T10:07:37.804Z,22.29
2019-05-19T10:10:11.348Z,22.01
2019-05-19T10:12:40.356Z,21.91
2019-05-19T10:15:10.325Z,22.72
2019-05-19T10:17:39.398Z,24.14
2019-05-19T10:20:09.244Z,25.30
2019-05-19T10:22:38.285Z,25.57
2019-05-19T10:25:20.827Z,25.25
2019-05-19T10:27:39.904Z,24.83
2019-05-19T10:30:09.166Z,24.48
2019-05-19T10:32:38.190Z,24.16
2019-05-19T10:35:07.785Z,23.89
2019-05-19T10:37:36.969Z,23.59
2019-05-19T10:40:06.577Z,23.32
2019-05-19T10:42:35.904Z,23.03
2019-05-19T10:45:08.817Z,22.76
2019-05-19T10:47:37.957Z,22.51
2019-05-19T10:50:07.458Z,22.39
2019-05-19T10:52:36.506Z,22.31
2019-05-19T10:55:06.290Z,22.25
2019-05-19T10:57:35.317Z,22.24
2019-05-19T11:00:07.006Z,22.28
2019-05-19T11:02:36.014Z,23.10
2019-05-19T11:05:06.893Z,24.51
2019-05-19T11:07:35.904Z,25.68
2019-05-19T11:10:07.511Z,26.05
2019-05-19T11:12:36.780Z,25.70
2019-05-19T11:15:08.576Z,25.30
2019-05-19T11:21:16.014Z,24.76
2019-05-19T11:23:45.034Z,24.59
2019-05-19T11:26:14.059Z,24.50
2019-05-19T11:28:43.066Z,24.41
2019-05-19T11:31:12.158Z,24.41
2019-05-19T11:33:41.219Z,24.27
2019-05-19T11:36:10.218Z,23.96
2019-05-19T11:38:39.280Z,23.68
2019-05-19T11:41:08.440Z,23.44
2019-05-19T11:43:37.466Z,23.38
2019-05-19T11:46:06.533Z,23.45
2019-05-19T11:48:35.560Z,23.69
2019-05-19T11:51:04.907Z,23.78
2019-05-19T11:53:33.887Z,23.53
2019-05-19T11:56:06.573Z,23.52
2019-05-19T11:58:33.685Z,23.63
2019-05-19T12:01:02.794Z,23.65
2019-05-19T12:03:31.905Z,23.68
2019-05-19T12:06:00.946Z,23.61
2019-05-19T12:08:29.976Z,23.40
2019-05-19T12:10:59.001Z,23.15
2019-05-19T12:13:28.132Z,22.73
2019-05-19T12:15:57.158Z,23.00
2019-05-19T12:18:26.176Z,23.86
2019-05-19T12:20:55.204Z,24.62
2019-05-19T12:23:24.229Z,25.26
2019-05-19T12:25:53.287Z,25.80
2019-05-19T12:28:22.332Z,26.22
2019-05-19T12:30:51.367Z,26.15
2019-05-19T12:33:20.391Z,25.54
2019-05-19T12:35:49.488Z,25.07
2019-05-19T12:38:18.611Z,24.67
2019-05-19T12:40:47.636Z,24.36
2019-05-19T12:43:16.650Z,24.03
2019-05-19T12:45:45.705Z,23.86
2019-05-19T12:48:14.712Z,23.79
2019-05-19T12:50:43.752Z,23.78
2019-05-19T12:53:12.819Z,23.80
2019-05-19T12:55:41.867Z,23.89
2019-05-19T12:58:10.951Z,24.04
2019-05-19T13:00:39.972Z,23.96
2019-05-19T13:03:08.980Z,23.73
2019-05-19T13:05:38.013Z,23.49
2019-05-19T13:08:07.059Z,23.30
2019-05-19T13:10:36.082Z,23.22
2019-05-19T13:13:05.132Z,24.17
2019-05-19T13:15:34.235Z,25.77
2019-05-19T13:18:03.244Z,26.33
2019-05-19T13:20:32.279Z,26.09
2019-05-19T13:23:01.373Z,25.74
2019-05-19T13:25:30.468Z,25.50
2019-05-19T13:27:59.581Z,25.37
2019-05-19T13:30:28.590Z,25.15
2019-05-19T13:32:57.618Z,24.76
2019-05-19T13:35:26.608Z,24.37
2019-05-19T13:37:55.677Z,23.96
2019-05-19T13:40:24.685Z,23.69
2019-05-19T13:42:53.882Z,23.48
2019-05-19T13:45:22.939Z,23.32
2019-05-19T13:47:52.045Z,23.25
2019-05-19T13:50:21.058Z,23.24
2019-05-19T13:52:51.314Z,23.21
2019-05-19T13:55:20.491Z,23.21
2019-05-19T13:57:49.742Z,23.27
2019-05-19T14:00:19.211Z,23.34
2019-05-19T14:02:48.225Z,23.49
2019-05-19T14:05:17.324Z,23.85
2019-05-19T14:07:46.331Z,24.19
2019-05-19T14:10:15.347Z,24.52
2019-05-19T14:12:44.370Z,24.82
2019-05-19T14:15:13.989Z,25.22
2019-05-19T14:17:43.127Z,25.41
2019-05-19T14:20:12.519Z,25.70
2019-05-19T14:22:41.545Z,25.95
2019-05-19T14:25:10.987Z,26.22
2019-05-19T14:27:40.011Z,26.47
2019-05-19T14:30:09.585Z,26.73
2019-05-19T14:32:38.621Z,27.00
2019-05-19T14:35:10.380Z,27.26
2019-05-19T14:37:39.492Z,27.48
2019-05-19T14:40:08.633Z,27.17
2019-05-19T14:42:51.235Z,26.56
2019-05-19T14:45:20.313Z,26.05
2019-05-19T14:47:49.341Z,25.61
2019-05-19T14:50:18.370Z,25.41
2019-05-19T14:52:47.444Z,25.60
2019-05-19T14:55:16.469Z,26.01
2019-05-19T14:57:45.820Z,26.50
2019-05-19T15:00:16.694Z,27.07
2019-05-19T15:02:45.698Z,27.52
2019-05-19T15:05:14.889Z,27.73
2019-05-19T15:07:44.159Z,27.75
2019-05-19T15:10:13.266Z,27.08
2019-05-19T15:12:42.325Z,26.35
2019-05-19T15:15:11.341Z,25.70
2019-05-19T15:17:40.402Z,25.23
2019-05-19T15:20:09.511Z,25.27
2019-05-19T15:22:38.595Z,25.70
2019-05-19T15:25:08.153Z,26.22
2019-05-19T15:27:37.389Z,26.70
2019-05-19T15:30:13.204Z,27.09
2019-05-19T15:32:38.992Z,27.38
2019-05-19T15:35:08.637Z,27.77
2019-05-19T15:37:37.648Z,28.27
2019-05-19T15:40:07.826Z,28.73
2019-05-19T15:42:36.933Z,28.85
2019-05-19T15:45:06.570Z,28.36
2019-05-19T15:47:35.616Z,27.72
2019-05-19T15:50:08.355Z,26.93
2019-05-19T15:52:37.441Z,26.40
2019-05-19T15:55:06.957Z,26.05
2019-05-19T15:57:36.216Z,25.67
2019-05-19T16:00:08.036Z,25.34
2019-05-19T16:02:37.659Z,25.05
2019-05-19T16:05:07.604Z,24.81
2019-05-19T16:07:36.633Z,24.62
2019-05-19T16:10:08.993Z,24.50
2019-05-19T16:12:38.021Z,24.38
2019-05-19T16:15:07.967Z,24.36
2019-05-19T16:17:37.071Z,24.31
2019-05-19T16:20:10.572Z,24.23
2019-05-19T16:22:39.605Z,24.19
2019-05-19T16:25:08.794Z,24.10
2019-05-19T16:27:37.828Z,23.89
2019-05-19T16:30:09.178Z,23.69
2019-05-19T16:32:38.449Z,23.52
2019-05-19T16:35:07.838Z,23.38
2019-05-19T16:37:36.956Z,23.30
2019-05-19T16:40:07.116Z,23.20
2019-05-19T16:42:37.645Z,23.14
2019-05-19T16:45:08.953Z,23.09
2019-05-19T16:47:38.009Z,23.07
2019-05-19T16:50:07.230Z,23.03
2019-05-19T16:52:36.246Z,23.04
2019-05-19T16:55:19.157Z,22.93
2019-05-19T16:57:48.140Z,22.86
2019-05-19T17:00:17.252Z,22.77
2019-05-19T17:02:46.361Z,22.69
2019-05-19T17:05:15.440Z,22.63
2019-05-19T17:07:44.449Z,22.56
2019-05-19T17:10:13.497Z,23.21
2019-05-19T17:12:42.519Z,24.40
2019-05-19T17:15:11.611Z,25.30
2019-05-19T17:17:40.633Z,25.98
2019-05-19T17:20:10.325Z,26.02
2019-05-19T17:22:39.629Z,25.54
2019-05-19T17:25:08.761Z,25.03
2019-05-19T17:27:37.796Z,24.57
2019-05-19T17:30:08.349Z,24.13
2019-05-19T17:32:37.499Z,23.69
2019-05-19T17:35:07.258Z,23.25
2019-05-19T17:37:36.289Z,22.82
2019-05-19T17:40:06.263Z,23.22
2019-05-19T17:42:37.333Z,24.23
2019-05-19T17:45:07.400Z,25.01
2019-05-19T17:47:36.702Z,25.51
2019-05-19T17:50:06.526Z,25.91
2019-05-19T17:52:35.817Z,26.31
2019-05-19T17:55:07.312Z,26.21
2019-05-19T17:57:37.115Z,25.47
2019-05-19T18:00:10.147Z,24.71
2019-05-19T18:02:39.184Z,24.04
2019-05-19T18:05:08.374Z,23.45
2019-05-19T18:07:37.455Z,22.89
2019-05-19T18:10:07.214Z,22.39
2019-05-19T18:12:36.255Z,22.77
2019-05-19T18:15:06.498Z,23.72
2019-05-19T18:17:35.512Z,24.43
2019-05-19T18:20:06.855Z,24.98
2019-05-19T18:22:35.862Z,25.41
2019-05-19T18:25:06.025Z,25.75
2019-05-19T18:27:35.045Z,25.48
2019-05-19T18:30:04.477Z,24.62
2019-05-19T18:32:33.505Z,23.72
2019-05-19T18:35:02.577Z,23.00
2019-05-19T18:37:31.663Z,22.42
2019-05-19T18:40:00.725Z,21.90
2019-05-19T18:42:29.755Z,22.14
2019-05-19T18:44:58.794Z,23.09
2019-05-19T18:47:28.349Z,23.78
2019-05-19T18:49:57.379Z,24.23
2019-05-19T18:52:26.420Z,24.59
2019-05-19T18:54:55.554Z,24.83
2019-05-19T18:57:24.594Z,24.95
2019-05-19T18:59:53.622Z,25.09
2019-05-19T19:02:22.648Z,25.15
2019-05-19T19:04:51.702Z,24.74
2019-05-19T19:07:22.370Z,23.66
2019-05-19T19:09:51.423Z,22.74
2019-05-19T19:12:20.459Z,21.90
2019-05-19T19:14:49.477Z,21.20
2019-05-19T19:17:18.541Z,21.47
2019-05-19T19:19:47.614Z,22.35
2019-05-19T19:22:16.717Z,23.09
2019-05-19T19:24:45.746Z,23.62
2019-05-19T19:27:14.855Z,24.01
2019-05-19T19:29:43.861Z,24.30
2019-05-19T19:32:12.893Z,24.48
2019-05-19T19:34:41.924Z,24.59
2019-05-19T19:37:10.945Z,24.65
2019-05-19T19:39:39.988Z,24.25
2019-05-19T19:42:09.020Z,23.17
2019-05-19T19:44:38.073Z,22.14
2019-05-19T19:47:07.176Z,21.28
2019-05-19T19:49:36.271Z,21.30
2019-05-19T19:52:05.299Z,22.18
2019-05-19T19:54:34.386Z,23.00
2019-05-19T19:57:03.416Z,23.42
2019-05-19T19:59:32.452Z,23.75
2019-05-19T20:02:01.548Z,24.03
2019-05-19T20:04:30.569Z,24.20
2019-05-19T20:06:59.666Z,24.33
2019-05-19T20:09:28.739Z,24.46
2019-05-19T20:11:57.763Z,23.93
2019-05-19T20:14:26.794Z,22.90
2019-05-19T20:16:55.840Z,21.94
2019-05-19T20:19:25.003Z,21.15
2019-05-19T20:21:54.101Z,21.32
2019-05-19T20:24:23.423Z,22.05
2019-05-19T20:26:52.449Z,22.53
2019-05-19T20:29:21.486Z,23.01
2019-05-19T20:31:50.522Z,23.40
2019-05-19T20:34:19.575Z,23.62
2019-05-19T20:36:48.670Z,23.78
2019-05-19T20:39:17.908Z,23.90
2019-05-19T20:41:47.021Z,23.99
2019-05-19T20:44:16.039Z,24.09
2019-05-19T20:46:45.221Z,24.24
2019-05-19T20:49:14.256Z,24.31
2019-05-19T20:51:43.382Z,23.82
2019-05-19T20:54:12.436Z,22.73
2019-05-19T20:56:41.489Z,21.77
2019-05-19T20:59:10.540Z,20.91
2019-05-19T21:01:39.561Z,21.06
2019-05-19T21:04:08.583Z,21.85
2019-05-19T21:06:37.620Z,22.49
2019-05-19T21:09:06.907Z,22.82
2019-05-19T21:11:35.945Z,23.21
2019-05-19T21:14:04.969Z,23.46
2019-05-19T21:16:33.986Z,23.75
2019-05-19T21:19:03.057Z,24.00
2019-05-19T21:21:32.064Z,24.11
2019-05-19T21:24:01.116Z,24.27
2019-05-19T21:26:30.132Z,24.34
2019-05-19T21:28:59.149Z,24.46
2019-05-19T21:31:28.175Z,23.86
2019-05-19T21:33:57.284Z,22.89
2019-05-19T21:36:26.297Z,21.94
2019-05-19T21:38:55.395Z,21.16
2019-05-19T21:41:24.442Z,21.33
2019-05-19T21:43:53.456Z,22.14
2019-05-19T21:46:22.489Z,22.66
2019-05-19T21:48:51.515Z,23.04
2019-05-19T21:51:20.531Z,23.34
2019-05-19T21:53:49.946Z,23.59
2019-05-19T21:56:18.970Z,23.82
2019-05-19T21:58:48.021Z,24.06
2019-05-19T22:01:23.255Z,24.16
2019-05-19T22:03:47.801Z,24.20
2019-05-19T22:06:18.276Z,24.30
2019-05-19T22:08:47.283Z,24.33
2019-05-19T22:11:16.313Z,24.43
2019-05-19T22:13:45.520Z,24.50
2019-05-19T22:16:14.589Z,24.43
2019-05-19T22:18:43.734Z,24.57
2019-05-19T22:21:12.689Z,24.28
2019-05-19T22:23:41.748Z,24.28
2019-05-19T22:26:10.766Z,24.31
